sensor_id;sensor_type;location;lat;lon;timestamp;pressure;altitude;pressure_sealevel;temperature;humidity
7586;BME280;12459;42.646;23.292;2023-05-27T00:14:39;93683.63;;;15.76;100.00
7586;BME280;12459;42.646;23.292;2023-05-27T00:29:41;93730.63;;;16.17;100.00
7586;BME280;12459;42.646;23.292;2023-05-27T00:44:43;93731.25;;;16.21;100.00
7586;BME280;12459;42.646;23.292;2023-05-27T00:59:45;93627.06;;;15.94;100.00
7586;BME280;12459;42.646;23.292;2023-05-27T01:14:47;93628.44;;;16.12;100.00
7586;BME280;12459;42.646;23.292;2023-05-27T01:29:52;93576.63;;;15.66;100.00
7586;BME280;12459;42.646;23.292;2023-05-27T01:44:54;93543.75;;;15.55;100.00
7586;BME280;12459;42.646;23.292;2023-05-27T01:59:57;93649.47;;;15.82;100.00
7586;BME280;12459;42.646;23.292;2023-05-27T02:14:59;93712.56;;;16.14;100.00
7586;BME280;12459;42.646;23.292;2023-05-27T02:30:02;93566.91;;;15.05;100.00
7586;BME280;12459;42.646;23.292;2023-05-27T02:45:04;93555.03;;;14.90;100.00
7586;BME280;12459;42.646;23.292;2023-05-27T03:00:06;93657.97;;;15.43;100.00
7586;BME280;12459;42.646;23.292;2023-05-27T03:15:10;93605.91;;;15.29;100.00
7586;BME280;12459;42.646;23.292;2023-05-27T03:30:12;93560.22;;;15.10;100.00
7586;BME280;12459;42.646;23.292;2023-05-27T03:45:14;93608.28;;;15.40;100.00
7586;BME280;12459;42.646;23.292;2023-05-27T04:00:16;93742.09;;;15.95;100.00
7586;BME280;12459;42.646;23.292;2023-05-27T04:15:18;93641.47;;;15.66;100.00
7586;BME280;12459;42.646;23.292;2023-05-27T04:30:20;93465.88;;;14.81;100.00
7586;BME280;12459;42.646;23.292;2023-05-27T04:45:22;93297.97;;;13.50;100.00
7586;BME280;12459;42.646;23.292;2023-05-27T05:00:24;93662.03;;;16.23;100.00
7586;BME280;12459;42.646;23.292;2023-05-27T05:15:37;93637.41;;;16.09;100.00
7586;BME280;12459;42.646;23.292;2023-05-27T05:30:39;93708.47;;;16.56;100.00
7586;BME280;12459;42.646;23.292;2023-05-27T05:45:41;93634.38;;;16.07;100.00
7586;BME280;12459;42.646;23.292;2023-05-27T06:00:42;93645.34;;;16.59;100.00
7586;BME280;12459;42.646;23.292;2023-05-27T06:15:44;93695.22;;;16.84;100.00
7586;BME280;12459;42.646;23.292;2023-05-27T06:30:46;93677.22;;;16.90;100.00
7586;BME280;12459;42.646;23.292;2023-05-27T06:45:48;93657.88;;;16.79;100.00
7586;BME280;12459;42.646;23.292;2023-05-27T07:01:03;93795.06;;;17.82;100.00
7586;BME280;12459;42.646;23.292;2023-05-27T07:16:05;93826.22;;;17.77;100.00
7586;BME280;12459;42.646;23.292;2023-05-27T07:31:07;93800.63;;;17.78;100.00
7586;BME280;12459;42.646;23.292;2023-05-27T07:46:09;93708.25;;;16.98;100.00
7586;BME280;12459;42.646;23.292;2023-05-27T08:01:11;93691.59;;;17.31;100.00
7586;BME280;12459;42.646;23.292;2023-05-27T08:16:13;93647.28;;;17.15;100.00
7586;BME280;12459;42.646;23.292;2023-05-27T08:31:15;93679.78;;;17.68;100.00
7586;BME280;12459;42.646;23.292;2023-05-27T08:46:16;93775.81;;;18.20;100.00
7586;BME280;12459;42.646;23.292;2023-05-27T09:01:18;93812.91;;;18.63;100.00
7586;BME280;12459;42.646;23.292;2023-05-27T09:16:20;93802.16;;;18.60;100.00
7586;BME280;12459;42.646;23.292;2023-05-27T09:31:22;93700.78;;;18.35;100.00
7586;BME280;12459;42.646;23.292;2023-05-27T09:46:24;93667.44;;;18.26;100.00
7586;BME280;12459;42.646;23.292;2023-05-27T10:01:29;93615.75;;;18.38;98.73
7586;BME280;12459;42.646;23.292;2023-05-27T10:16:31;93659.09;;;18.97;99.38
7586;BME280;12459;42.646;23.292;2023-05-27T10:31:34;93658.81;;;19.55;94.72
7586;BME280;12459;42.646;23.292;2023-05-27T10:46:42;93719.47;;;20.22;90.54
7586;BME280;12459;42.646;23.292;2023-05-27T11:01:45;93660.97;;;20.17;91.52
7586;BME280;12459;42.646;23.292;2023-05-27T11:16:48;93635.19;;;19.80;88.48
7586;BME280;12459;42.646;23.292;2023-05-27T11:31:53;93523.66;;;19.46;88.85
7586;BME280;12459;42.646;23.292;2023-05-27T11:46:59;93602.44;;;20.46;87.46
7586;BME280;12459;42.646;23.292;2023-05-27T12:02:04;93689.66;;;20.99;85.40
7586;BME280;12459;42.646;23.292;2023-05-27T12:17:06;93457.00;;;19.60;83.28
7586;BME280;12459;42.646;23.292;2023-05-27T12:32:08;93598.34;;;20.65;83.20
7586;BME280;12459;42.646;23.292;2023-05-27T12:47:09;93578.31;;;20.53;81.84
7586;BME280;12459;42.646;23.292;2023-05-27T13:02:11;93490.03;;;20.30;84.46
7586;BME280;12459;42.646;23.292;2023-05-27T13:17:13;93526.50;;;20.77;80.72
7586;BME280;12459;42.646;23.292;2023-05-27T13:32:15;93476.47;;;20.60;82.20
7586;BME280;12459;42.646;23.292;2023-05-27T13:47:17;93505.88;;;20.85;80.74
7586;BME280;12459;42.646;23.292;2023-05-27T14:02:19;93438.06;;;20.58;77.94
7586;BME280;12459;42.646;23.292;2023-05-27T14:17:21;93441.31;;;20.18;76.20
7586;BME280;12459;42.646;23.292;2023-05-27T14:32:22;93526.63;;;20.83;76.84
7586;BME280;12459;42.646;23.292;2023-05-27T14:47:24;93495.25;;;20.87;75.11
7586;BME280;12459;42.646;23.292;2023-05-27T15:02:26;93390.91;;;20.37;74.52
7586;BME280;12459;42.646;23.292;2023-05-27T15:17:28;93489.31;;;21.03;74.00
7586;BME280;12459;42.646;23.292;2023-05-27T15:32:30;93468.94;;;20.55;77.38
7586;BME280;12459;42.646;23.292;2023-05-27T15:47:32;93494.38;;;21.25;76.21
7586;BME280;12459;42.646;23.292;2023-05-27T16:02:34;93381.34;;;20.12;76.64
7586;BME280;12459;42.646;23.292;2023-05-27T16:17:35;93524.47;;;20.87;77.69
7586;BME280;12459;42.646;23.292;2023-05-27T16:32:37;93442.63;;;20.22;85.61
7586;BME280;12459;42.646;23.292;2023-05-27T16:47:39;93511.22;;;20.26;86.00
7586;BME280;12459;42.646;23.292;2023-05-27T17:02:41;93460.63;;;19.33;88.67
7586;BME280;12459;42.646;23.292;2023-05-27T17:17:43;93528.22;;;19.40;91.25
7586;BME280;12459;42.646;23.292;2023-05-27T17:32:45;93465.31;;;19.00;94.70
7586;BME280;12459;42.646;23.292;2023-05-27T17:47:46;93591.91;;;19.06;100.00
7586;BME280;12459;42.646;23.292;2023-05-27T18:02:48;93665.00;;;19.46;100.00
7586;BME280;12459;42.646;23.292;2023-05-27T18:17:50;93651.13;;;19.44;100.00
7586;BME280;12459;42.646;23.292;2023-05-27T18:32:51;93635.19;;;19.19;100.00
7586;BME280;12459;42.646;23.292;2023-05-27T18:47:53;93572.94;;;18.51;100.00
7586;BME280;12459;42.646;23.292;2023-05-27T19:02:55;93688.06;;;18.91;100.00
7586;BME280;12459;42.646;23.292;2023-05-27T19:18:02;93767.50;;;18.64;100.00
7586;BME280;12459;42.646;23.292;2023-05-27T19:33:04;93767.44;;;17.31;100.00
7586;BME280;12459;42.646;23.292;2023-05-27T19:48:06;93696.41;;;16.83;100.00
7586;BME280;12459;42.646;23.292;2023-05-27T20:03:08;93560.84;;;16.12;100.00
7586;BME280;12459;42.646;23.292;2023-05-27T20:18:10;93574.75;;;16.23;100.00
7586;BME280;12459;42.646;23.292;2023-05-27T20:33:11;93541.53;;;16.01;100.00
7586;BME280;12459;42.646;23.292;2023-05-27T20:48:13;93610.75;;;16.54;100.00
7586;BME280;12459;42.646;23.292;2023-05-27T21:03:15;93630.81;;;16.44;100.00
7586;BME280;12459;42.646;23.292;2023-05-27T21:18:17;93562.13;;;15.85;100.00
7586;BME280;12459;42.646;23.292;2023-05-27T21:33:19;93582.97;;;15.85;100.00
7586;BME280;12459;42.646;23.292;2023-05-27T21:48:21;93628.66;;;16.05;100.00
7586;BME280;12459;42.646;23.292;2023-05-27T22:03:23;93639.28;;;15.86;100.00
7586;BME280;12459;42.646;23.292;2023-05-27T22:18:25;93517.03;;;15.22;100.00
7586;BME280;12459;42.646;23.292;2023-05-27T22:33:26;93495.53;;;15.19;100.00
7586;BME280;12459;42.646;23.292;2023-05-27T22:48:30;93700.16;;;16.51;100.00
7586;BME280;12459;42.646;23.292;2023-05-27T23:03:32;93663.66;;;16.21;100.00
7586;BME280;12459;42.646;23.292;2023-05-27T23:18:34;93588.72;;;15.74;100.00
7586;BME280;12459;42.646;23.292;2023-05-27T23:33:36;93658.59;;;16.10;100.00
7586;BME280;12459;42.646;23.292;2023-05-27T23:48:37;93499.81;;;15.42;100.00
